createdAt,value
2019-02-08T00:02:47.400Z,41.20
2019-02-08T00:05:50.077Z,41.15
2019-02-08T00:08:53.730Z,41.50
2019-02-08T00:11:57.410Z,40.35
2019-02-08T00:15:05.935Z,41.28
2019-02-08T00:18:09.907Z,41.18
2019-02-08T00:21:13.721Z,41.53
2019-02-08T00:24:16.698Z,40.00
2019-02-08T00:27:16.980Z,41.48
2019-02-08T00:30:20.713Z,43.08
2019-02-08T00:33:24.169Z,42.15
2019-02-08T00:36:25.656Z,43.60
2019-02-08T00:39:29.038Z,45.00
2019-02-08T00:42:32.151Z,44.53
2019-02-08T00:45:35.844Z,44.80
2019-02-08T00:48:39.528Z,43.68
2019-02-08T00:51:38.818Z,45.73
2019-02-08T00:54:40.595Z,45.20
2019-02-08T00:57:40.061Z,46.15
2019-02-08T01:00:40.327Z,48.23
2019-02-08T01:03:44.225Z,48.90
2019-02-08T01:06:47.748Z,47.58
2019-02-08T01:09:51.504Z,46.53
2019-02-08T01:12:51.120Z,47.83
2019-02-08T01:15:55.642Z,47.90
2019-02-08T01:18:58.684Z,47.98
2019-02-08T01:22:02.341Z,48.48
2019-02-08T01:25:06.496Z,47.88
2019-02-08T01:28:10.080Z,47.88
2019-02-08T01:31:11.354Z,47.80
2019-02-08T01:34:15.074Z,45.90
2019-02-08T01:37:18.433Z,45.30
2019-02-08T01:40:22.698Z,43.30
2019-02-08T01:43:26.935Z,44.60
2019-02-08T01:46:31.157Z,43.92
2019-02-08T01:49:35.320Z,46.75
2019-02-08T01:52:31.615Z,42.50
2019-02-08T01:55:27.313Z,45.35
2019-02-08T02:01:21.914Z,45.83
2019-02-08T02:04:26.299Z,44.15
2019-02-08T02:07:35.105Z,43.08
2019-02-08T02:10:32.782Z,43.23
2019-02-08T02:13:27.792Z,44.85
2019-02-08T02:16:22.913Z,44.93
2019-02-08T02:19:23.698Z,43.78
2019-02-08T02:22:18.654Z,43.13
2019-02-08T02:25:15.012Z,45.38
2019-02-08T02:28:10.247Z,51.33
2019-02-08T02:34:00.570Z,52.05
2019-02-08T02:36:55.913Z,49.60
2019-02-08T02:39:51.034Z,46.53
2019-02-08T02:42:46.519Z,43.13
2019-02-08T02:45:50.015Z,42.55
2019-02-08T02:48:45.235Z,41.95
2019-02-08T02:51:40.805Z,44.90
2019-02-08T02:54:44.610Z,46.95
2019-02-08T02:57:40.154Z,47.85
2019-02-08T03:00:40.792Z,49.55
2019-02-08T03:03:43.828Z,48.70
2019-02-08T03:06:44.950Z,47.55
2019-02-08T03:09:43.809Z,47.80
2019-02-08T03:12:48.246Z,48.40
2019-02-08T03:15:52.503Z,47.17
2019-02-08T03:18:57.074Z,45.00
2019-02-08T03:22:00.905Z,46.08
2019-02-08T03:25:04.131Z,43.50
2019-02-08T03:28:03.658Z,43.50
2019-02-08T03:34:21.572Z,41.25
2019-02-08T03:37:27.736Z,42.05
2019-02-08T03:40:33.795Z,44.58
2019-02-08T03:43:37.228Z,44.05
2019-02-08T03:46:41.121Z,45.65
2019-02-08T03:49:39.335Z,47.73
2019-02-08T03:52:41.274Z,48.42
2019-02-08T03:59:05.116Z,48.60
2019-02-08T04:02:09.581Z,46.37
2019-02-08T04:05:15.995Z,44.40
2019-02-08T04:08:19.521Z,45.38
2019-02-08T04:11:23.236Z,43.50
2019-02-08T04:14:29.852Z,46.90
2019-02-08T04:17:30.944Z,46.37
2019-02-08T04:20:37.325Z,44.40
2019-02-08T04:23:48.064Z,44.27
2019-02-08T04:26:52.464Z,44.08
2019-02-08T04:29:56.014Z,44.67
2019-02-08T04:32:59.741Z,45.70
2019-02-08T04:35:54.572Z,44.80
2019-02-08T04:38:52.067Z,45.33
2019-02-08T04:41:48.278Z,46.63
2019-02-08T04:44:46.168Z,47.25
2019-02-08T04:47:41.065Z,47.50
2019-02-08T04:50:38.981Z,44.23
2019-02-08T04:53:34.640Z,45.33
2019-02-08T04:56:30.026Z,43.90
2019-02-08T04:59:28.355Z,44.42
2019-02-08T05:02:24.442Z,49.42
2019-02-08T05:08:53.937Z,46.48
2019-02-08T05:11:48.825Z,44.50
2019-02-08T05:14:44.043Z,45.90
2019-02-08T05:17:38.637Z,46.98
2019-02-08T05:20:41.549Z,46.80
2019-02-08T05:23:44.202Z,44.27
2019-02-08T05:26:42.098Z,44.13
2019-02-08T05:30:15.145Z,43.48
2019-02-08T05:33:25.891Z,43.90
2019-02-08T05:36:26.087Z,45.10
2019-02-08T05:39:21.731Z,44.80
2019-02-08T05:42:35.661Z,45.03
2019-02-08T05:46:41.796Z,49.98
2019-02-08T05:49:38.261Z,48.78
2019-02-08T05:52:58.067Z,48.75
2019-02-08T05:55:48.257Z,48.00
2019-02-08T05:58:57.241Z,49.15
2019-02-08T06:01:52.880Z,48.68
2019-02-08T06:04:56.587Z,50.15
2019-02-08T06:07:52.730Z,46.40
2019-02-08T06:10:50.086Z,47.73
2019-02-08T06:13:49.237Z,46.65
2019-02-08T06:17:00.498Z,46.80
2019-02-08T06:20:42.570Z,46.40
2019-02-08T06:23:50.654Z,48.05
2019-02-08T06:27:12.156Z,47.05
2019-02-08T06:30:49.782Z,48.85
2019-02-08T06:34:25.476Z,46.92
2019-02-08T06:42:57.262Z,47.95
2019-02-08T06:45:48.774Z,44.35
2019-02-08T06:48:58.471Z,44.08
2019-02-08T06:52:29.079Z,46.55
2019-02-08T06:55:47.522Z,45.40
2019-02-08T06:58:51.653Z,43.70
2019-02-08T07:02:06.569Z,42.55
2019-02-08T07:05:26.419Z,43.05
2019-02-08T07:08:29.486Z,40.92
2019-02-08T07:12:06.446Z,44.30
2019-02-08T07:15:32.037Z,45.48
2019-02-08T07:18:51.098Z,44.65
2019-02-08T07:25:46.622Z,47.15
2019-02-08T07:32:37.377Z,50.55
2019-02-08T07:36:10.995Z,54.40
2019-02-08T07:39:27.564Z,54.15
2019-02-08T07:42:46.346Z,60.58
2019-02-08T07:46:03.510Z,61.73
2019-02-08T07:49:14.849Z,62.67
2019-02-08T07:52:29.668Z,65.12
2019-02-08T07:55:50.552Z,65.55
2019-02-08T07:59:03.638Z,68.90
2019-02-08T08:02:34.331Z,67.05
2019-02-08T08:05:42.460Z,73.12
2019-02-08T08:08:55.600Z,78.57
2019-02-08T08:12:08.518Z,78.05
2019-02-08T08:15:28.449Z,81.17
2019-02-08T08:18:44.560Z,80.85
2019-02-08T08:21:58.714Z,80.75
2019-02-08T08:25:18.983Z,75.70
2019-02-08T08:28:41.291Z,73.05
2019-02-08T08:32:37.300Z,72.27
2019-02-08T08:36:25.971Z,76.20
2019-02-08T08:39:49.822Z,78.65
2019-02-08T08:43:06.718Z,76.53
2019-02-08T08:46:21.215Z,75.83
2019-02-08T08:49:53.455Z,65.40
2019-02-08T08:53:46.080Z,69.55
2019-02-08T08:57:49.052Z,73.50
2019-02-08T09:01:43.294Z,71.20
2019-02-08T09:05:14.421Z,69.10
2019-02-08T09:08:29.613Z,70.20
2019-02-08T09:11:58.800Z,68.57
2019-02-08T09:15:56.897Z,72.90
2019-02-08T09:20:09.856Z,70.35
2019-02-08T09:28:11.971Z,72.90
2019-02-08T09:32:05.672Z,77.70
2019-02-08T09:35:50.746Z,86.97
2019-02-08T09:39:24.028Z,77.53
2019-02-08T09:43:17.236Z,86.70
2019-02-08T09:51:25.730Z,76.47
2019-02-08T09:54:59.940Z,73.25
2019-02-08T09:58:27.534Z,76.33
2019-02-08T10:01:54.703Z,75.95
2019-02-08T10:05:44.615Z,80.20
2019-02-08T10:09:23.554Z,79.30
2019-02-08T10:13:16.126Z,82.72
2019-02-08T10:16:50.587Z,74.87
2019-02-08T10:20:23.357Z,78.05
2019-02-08T10:23:55.929Z,76.85
2019-02-08T10:27:42.238Z,78.33
2019-02-08T10:34:18.395Z,71.87
2019-02-08T10:38:18.345Z,72.53
2019-02-08T10:41:48.416Z,73.67
2019-02-08T10:45:25.187Z,72.27
2019-02-08T10:52:27.380Z,71.02
2019-02-08T10:56:01.634Z,73.92
2019-02-08T10:59:38.413Z,74.58
2019-02-08T11:02:44.867Z,73.60
2019-02-08T11:06:31.553Z,76.57
2019-02-08T11:10:20.849Z,68.52
2019-02-08T11:14:17.434Z,67.03
2019-02-08T11:18:04.125Z,71.87
2019-02-08T11:20:59.783Z,70.22
2019-02-08T11:23:55.625Z,70.40
2019-02-08T11:26:51.412Z,70.78
2019-02-08T11:29:46.697Z,69.17
2019-02-08T11:32:45.052Z,74.65
2019-02-08T11:35:43.826Z,66.62
2019-02-08T11:38:37.035Z,66.55
2019-02-08T11:41:38.424Z,67.25
2019-02-08T11:44:41.063Z,67.82
2019-02-08T11:47:38.866Z,70.60
2019-02-08T11:50:35.560Z,67.87
2019-02-08T11:53:34.192Z,69.17
2019-02-08T11:56:34.619Z,71.53
2019-02-08T11:59:30.632Z,72.32
2019-02-08T12:02:26.882Z,68.40
2019-02-08T12:05:26.206Z,69.40
2019-02-08T12:08:23.524Z,75.83
2019-02-08T12:11:19.283Z,75.85
2019-02-08T12:14:15.804Z,66.60
2019-02-08T12:17:12.258Z,68.47
2019-02-08T12:20:10.328Z,70.83
2019-02-08T12:23:07.230Z,69.55
2019-02-08T12:26:03.122Z,69.85
2019-02-08T12:28:58.041Z,66.35
2019-02-08T12:31:52.925Z,68.05
2019-02-08T12:34:48.800Z,71.67
2019-02-08T12:37:51.359Z,71.17
2019-02-08T12:40:47.268Z,76.15
2019-02-08T12:43:43.217Z,77.22
2019-02-08T12:46:40.759Z,77.97
2019-02-08T12:49:36.313Z,81.82
2019-02-08T12:52:31.450Z,80.72
2019-02-08T12:55:27.838Z,80.95
2019-02-08T12:58:23.614Z,77.32
2019-02-08T13:01:19.171Z,78.40
2019-02-08T13:04:14.541Z,81.37
2019-02-08T13:07:10.394Z,77.60
2019-02-08T13:10:06.973Z,78.67
2019-02-08T13:13:02.305Z,91.35
2019-02-08T13:15:57.538Z,95.05
2019-02-08T13:18:52.869Z,110.03
2019-02-08T13:21:48.242Z,110.42
2019-02-08T13:24:43.282Z,112.83
2019-02-08T13:27:40.625Z,106.85
2019-02-08T13:30:35.643Z,102.38
2019-02-08T13:33:30.904Z,102.42
2019-02-08T13:36:25.738Z,94.03
2019-02-08T13:39:21.337Z,86.30
2019-02-08T13:42:16.147Z,88.42
2019-02-08T13:45:12.461Z,89.50
2019-02-08T13:48:07.479Z,83.65
2019-02-08T13:51:01.994Z,85.42
2019-02-08T13:53:57.103Z,83.92
2019-02-08T13:57:00.210Z,82.22
2019-02-08T13:59:48.463Z,79.20
2019-02-08T14:02:43.986Z,79.32
2019-02-08T14:05:39.238Z,79.95
2019-02-08T14:08:35.732Z,80.17
2019-02-08T14:11:33.558Z,82.50
2019-02-08T14:14:28.952Z,81.45
2019-02-08T14:17:23.861Z,86.17
2019-02-08T14:20:21.508Z,85.22
2019-02-08T14:23:17.010Z,98.15
2019-02-08T14:26:12.268Z,97.55
2019-02-08T14:29:07.574Z,97.90
2019-02-08T14:32:02.691Z,104.65
2019-02-08T14:34:57.324Z,97.90
2019-02-08T14:37:52.591Z,89.00
2019-02-08T14:40:47.569Z,86.87
2019-02-08T14:43:42.496Z,89.42
2019-02-08T14:47:33.870Z,95.30
2019-02-08T14:51:00.423Z,93.27
2019-02-08T14:53:55.349Z,96.32
2019-02-08T14:56:59.697Z,95.55
2019-02-08T14:59:55.083Z,98.67
2019-02-08T15:02:50.947Z,100.07
2019-02-08T15:05:46.147Z,97.42
2019-02-08T15:08:40.893Z,93.90
2019-02-08T15:11:35.562Z,95.55
2019-02-08T15:14:30.476Z,94.83
2019-02-08T15:17:25.290Z,91.70
2019-02-08T15:20:23.370Z,88.37
2019-02-08T15:23:18.343Z,90.70
2019-02-08T15:26:12.927Z,88.82
2019-02-08T15:29:07.916Z,89.60
2019-02-08T15:32:02.728Z,87.15
2019-02-08T15:34:57.309Z,90.28
2019-02-08T15:37:52.270Z,94.25
2019-02-08T15:40:49.840Z,90.72
2019-02-08T15:43:45.061Z,86.63
2019-02-08T15:46:39.827Z,82.00
2019-02-08T15:49:34.523Z,83.40
2019-02-08T15:52:29.393Z,86.55
2019-02-08T15:55:26.849Z,85.07
2019-02-08T15:58:21.958Z,83.52
2019-02-08T16:01:17.365Z,84.70
2019-02-08T16:04:12.167Z,86.22
2019-02-08T16:07:06.861Z,83.87
2019-02-08T16:10:01.892Z,82.40
2019-02-08T16:12:56.537Z,85.20
2019-02-08T16:15:51.605Z,85.17
2019-02-08T16:18:47.042Z,82.22
2019-02-08T16:21:42.302Z,82.90
2019-02-08T16:24:37.002Z,86.35
2019-02-08T16:27:38.764Z,84.72
2019-02-08T16:30:28.960Z,84.10
2019-02-08T16:33:23.681Z,86.65
2019-02-08T16:36:18.293Z,85.80
2019-02-08T16:39:14.920Z,86.08
2019-02-08T16:42:09.518Z,86.70
2019-02-08T16:45:04.175Z,84.13
2019-02-08T16:47:59.937Z,84.90
2019-02-08T16:50:54.968Z,82.35
2019-02-08T16:53:53.571Z,81.90
2019-02-08T16:56:45.839Z,84.22
2019-02-08T16:59:40.382Z,85.12
2019-02-08T17:02:35.054Z,90.60
2019-02-08T17:05:31.008Z,84.55
2019-02-08T17:08:25.578Z,86.90
2019-02-08T17:11:20.330Z,83.25
2019-02-08T17:14:15.130Z,84.77
2019-02-08T17:17:10.057Z,82.75
2019-02-08T17:20:05.260Z,82.70
2019-02-08T17:22:59.964Z,82.75
2019-02-08T17:25:54.748Z,85.12
2019-02-08T17:28:49.599Z,79.35
2019-02-08T17:31:44.524Z,79.58
2019-02-08T17:34:39.359Z,77.92
2019-02-08T17:37:34.178Z,81.63
2019-02-08T17:40:30.898Z,84.00
2019-02-08T17:43:26.397Z,84.20
2019-02-08T17:46:21.500Z,84.97
2019-02-08T17:49:16.876Z,86.85
2019-02-08T17:52:11.584Z,86.42
2019-02-08T17:55:07.064Z,83.75
2019-02-08T17:58:03.909Z,83.33
2019-02-08T18:00:59.826Z,87.57
2019-02-08T18:03:54.863Z,79.20
2019-02-08T18:06:49.795Z,84.15
2019-02-08T18:09:44.770Z,83.30
2019-02-08T18:12:39.757Z,81.05
2019-02-08T18:15:34.517Z,77.92
2019-02-08T18:18:31.346Z,81.17
2019-02-08T18:21:25.955Z,80.50
2019-02-08T18:24:20.655Z,81.63
2019-02-08T18:27:15.472Z,82.82
2019-02-08T18:30:11.408Z,80.70
2019-02-08T18:33:06.190Z,82.90
2019-02-08T18:36:00.931Z,81.57
2019-02-08T18:38:57.264Z,83.95
2019-02-08T18:41:50.843Z,81.90
2019-02-08T18:44:45.794Z,88.17
2019-02-08T18:47:41.063Z,85.92
2019-02-08T18:50:41.368Z,82.10
2019-02-08T18:53:36.099Z,83.87
2019-02-08T18:56:30.719Z,80.00
2019-02-08T18:59:26.212Z,79.82
2019-02-08T19:02:20.977Z,80.45
2019-02-08T19:05:16.870Z,80.60
2019-02-08T19:08:12.332Z,79.60
2019-02-08T19:11:07.379Z,78.97
2019-02-08T19:14:02.030Z,80.67
2019-02-08T19:16:56.997Z,78.75
2019-02-08T19:19:51.896Z,78.47
2019-02-08T19:22:47.244Z,77.30
2019-02-08T19:25:44.148Z,79.77
2019-02-08T19:28:38.907Z,81.17
2019-02-08T19:31:33.835Z,80.17
2019-02-08T19:34:29.356Z,82.05
2019-02-08T19:37:24.198Z,82.72
2019-02-08T19:40:24.281Z,85.10
2019-02-08T19:43:19.167Z,81.85
2019-02-08T19:46:13.933Z,80.67
2019-02-08T19:49:08.544Z,79.25
2019-02-08T19:52:03.415Z,83.07
2019-02-08T19:54:58.366Z,80.97
2019-02-08T19:57:53.462Z,81.92
2019-02-08T20:00:49.468Z,83.07
2019-02-08T20:03:44.251Z,83.85
2019-02-08T20:06:39.066Z,83.35
2019-02-08T20:09:33.984Z,82.45
2019-02-08T20:12:29.383Z,84.60
2019-02-08T20:15:24.278Z,85.90
2019-02-08T20:18:19.508Z,85.67
2019-02-08T20:21:14.059Z,86.87
2019-02-08T20:24:09.217Z,85.55
2019-02-08T20:27:04.040Z,85.62
2019-02-08T20:29:58.727Z,84.85
2019-02-08T20:32:53.517Z,82.50
2019-02-08T20:35:48.086Z,84.00
2019-02-08T20:38:42.889Z,83.72
2019-02-08T20:41:37.717Z,80.38
2019-02-08T20:44:32.697Z,85.05
2019-02-08T20:47:27.549Z,82.75
2019-02-08T20:50:22.785Z,86.78
2019-02-08T20:53:17.817Z,81.45
2019-02-08T20:56:12.905Z,76.12
2019-02-08T20:59:07.775Z,77.65
2019-02-08T21:02:02.761Z,77.00
2019-02-08T21:04:57.677Z,70.30
2019-02-08T21:07:52.388Z,78.47
2019-02-08T21:10:47.521Z,71.62
2019-02-08T21:13:42.223Z,73.62
2019-02-08T21:16:37.123Z,72.58
2019-02-08T21:19:32.670Z,68.10
2019-02-08T21:22:27.175Z,65.10
2019-02-08T21:25:25.371Z,67.10
2019-02-08T21:28:20.443Z,67.25
2019-02-08T21:31:15.216Z,66.28
2019-02-08T21:34:10.045Z,67.92
2019-02-08T21:37:04.860Z,63.52
2019-02-08T21:39:59.433Z,65.83
2019-02-08T21:42:54.265Z,64.12
2019-02-08T21:45:50.078Z,63.63
2019-02-08T21:48:44.883Z,60.30
2019-02-08T21:51:39.530Z,60.83
2019-02-08T21:54:34.323Z,59.35
2019-02-08T21:57:28.887Z,57.93
2019-02-08T22:00:47.850Z,57.05
2019-02-08T22:03:42.540Z,53.78
2019-02-08T22:06:37.185Z,57.65
2019-02-08T22:09:31.874Z,57.13
2019-02-08T22:12:26.729Z,54.80
2019-02-08T22:15:24.219Z,55.03
2019-02-08T22:18:19.060Z,43.80
2019-02-08T22:21:13.661Z,37.25
2019-02-08T22:24:08.771Z,39.05
2019-02-08T22:27:03.331Z,37.60
2019-02-08T22:29:58.335Z,37.28
2019-02-08T22:32:55.745Z,37.35
2019-02-08T22:35:50.717Z,36.33
2019-02-08T22:38:45.324Z,36.13
2019-02-08T22:41:40.393Z,35.50
2019-02-08T22:44:35.267Z,36.03
2019-02-08T22:47:29.789Z,34.88
2019-02-08T22:50:24.654Z,35.23
2019-02-08T22:53:19.202Z,31.55
2019-02-08T22:56:13.924Z,31.42
2019-02-08T22:59:09.153Z,31.93
2019-02-08T23:02:04.759Z,26.68
2019-02-08T23:04:59.311Z,24.02
2019-02-08T23:07:54.102Z,27.42
2019-02-08T23:10:48.668Z,27.45
2019-02-08T23:13:43.508Z,24.63
2019-02-08T23:16:38.306Z,24.65
2019-02-08T23:19:33.171Z,21.68
2019-02-08T23:22:28.027Z,23.38
2019-02-08T23:25:22.768Z,19.90
2019-02-08T23:28:17.467Z,19.23
2019-02-08T23:31:12.030Z,19.70
2019-02-08T23:34:06.728Z,18.17
2019-02-08T23:37:01.478Z,18.35
2019-02-08T23:39:56.139Z,16.32
2019-02-08T23:42:50.916Z,17.60
2019-02-08T23:45:45.939Z,14.80
2019-02-08T23:48:40.779Z,16.65
2019-02-08T23:51:35.324Z,16.82
2019-02-08T23:54:29.983Z,15.65
2019-02-08T23:57:24.726Z,16.02
